Time;durP1;ratioP1;P1;durP2;ratioP2;P2;SDS_P1;SDS_P2;PMS_P1;PMS_P2;Temp;Humidity;BMP_temperature;BMP_pressure;BME280_temperature;BME280_humidity;BME280_pressure;Samples;Min_cycle;Max_cycle;Signal;HPM_P1;HPM_P2
2021/09/05 00:00:05;;;;;;;34.35;21.70;;;;;;;;;;5109096;28;20036;-71
2021/09/05 00:02:31;;;;;;;32.53;20.48;;;;;;;;;;5098902;28;20028;-71
2021/09/05 00:04:57;;;;;;;37.63;23.13;;;;;;;;;;5109138;28;20032;-71
2021/09/05 00:07:23;;;;;;;35.75;21.15;;;;;;;;;;5093134;28;20030;-73
2021/09/05 00:09:49;;;;;;;37.13;20.63;;;;;;;;;;5110511;28;20024;-71
2021/09/05 00:12:15;;;;;;;39.25;22.27;;;;;;;;;;5111433;28;20012;-71
2021/09/05 00:14:41;;;;;;;40.05;21.95;;;;;;;;;;5109615;28;20020;-71
2021/09/05 00:17:07;;;;;;;34.17;21.95;;;;;;;;;;5111206;28;20115;-71
2021/09/05 00:19:34;;;;;;;33.42;20.95;;;;;;;;;;5091942;28;20020;-71
2021/09/05 00:22:00;;;;;;;33.95;21.98;;;;;;;;;;5086149;28;20016;-71
2021/09/05 00:24:26;;;;;;;38.60;22.98;;;;;;;;;;5108344;28;20036;-71
2021/09/05 00:26:52;;;;;;;35.55;23.25;;;;;;;;;;5110954;28;20074;-71
2021/09/05 00:29:18;;;;;;;39.88;25.00;;;;;;;;;;5101088;28;20031;-71
2021/09/05 00:31:44;;;;;;;39.88;24.05;;;;;;;;;;5078115;28;20036;-71
2021/09/05 00:34:10;;;;;;;37.42;22.17;;;;;;;;;;5091181;28;20700;-71
2021/09/05 00:36:37;;;;;;;40.35;22.30;;;;;;;;;;5110196;28;20069;-71
2021/09/05 00:39:04;;;;;;;40.17;21.85;;;;;;;;;;5089208;28;20485;-71
2021/09/05 00:41:31;;;;;;;48.03;24.83;;;;;;;;;;5092033;28;20370;-71
2021/09/05 00:43:57;;;;;;;40.10;25.23;;;;;;;;;;5093756;28;20089;-72
2021/09/05 00:46:23;;;;;;;42.97;25.80;;;;;;;;;;5112508;28;20023;-70
2021/09/05 00:48:49;;;;;;;37.53;23.75;;;;;;;;;;5108043;28;20085;-70
2021/09/05 00:51:15;;;;;;;40.28;23.17;;;;;;;;;;5112186;28;20044;-71
2021/09/05 00:53:42;;;;;;;41.95;25.90;;;;;;;;;;5105639;28;20082;-71
2021/09/05 00:56:09;;;;;;;44.17;24.35;;;;;;;;;;5110755;28;20024;-71
2021/09/05 00:58:36;;;;;;;46.45;25.48;;;;;;;;;;5113130;28;20088;-71
2021/09/05 01:01:02;;;;;;;41.80;23.85;;;;;;;;;;5100096;28;20388;-71
2021/09/05 01:03:28;;;;;;;40.33;24.27;;;;;;;;;;5112581;28;20019;-71
2021/09/05 01:05:54;;;;;;;37.67;25.13;;;;;;;;;;5112122;28;20030;-71
2021/09/05 01:08:21;;;;;;;43.05;25.17;;;;;;;;;;5113271;28;20027;-72
2021/09/05 01:10:47;;;;;;;37.95;25.00;;;;;;;;;;5114015;28;20555;-72
2021/09/05 01:13:14;;;;;;;41.70;23.52;;;;;;;;;;5112965;28;20035;-72
2021/09/05 01:15:40;;;;;;;38.15;21.70;;;;;;;;;;5112462;28;20432;-71
2021/09/05 01:18:06;;;;;;;43.58;26.38;;;;;;;;;;5110226;28;20512;-72
2021/09/05 01:20:32;;;;;;;41.42;24.00;;;;;;;;;;5112436;28;20683;-71
2021/09/05 01:22:58;;;;;;;45.88;23.27;;;;;;;;;;5105395;28;20666;-71
2021/09/05 01:25:24;;;;;;;36.78;24.23;;;;;;;;;;5112322;28;20114;-71
2021/09/05 01:27:50;;;;;;;37.15;22.05;;;;;;;;;;5095336;28;20019;-71
2021/09/05 01:30:16;;;;;;;36.85;22.60;;;;;;;;;;5113485;28;20028;-71
2021/09/05 01:32:42;;;;;;;38.13;24.35;;;;;;;;;;5095360;28;20051;-71
2021/09/05 01:35:08;;;;;;;43.75;25.27;;;;;;;;;;5111528;28;20025;-71
2021/09/05 01:37:34;;;;;;;39.67;23.17;;;;;;;;;;5113386;28;20077;-71
2021/09/05 01:40:01;;;;;;;39.50;23.65;;;;;;;;;;5092161;28;20033;-71
2021/09/05 01:42:28;;;;;;;34.65;21.75;;;;;;;;;;5113172;28;20045;-71
2021/09/05 01:44:54;;;;;;;37.15;23.25;;;;;;;;;;5111792;28;20020;-72
2021/09/05 01:47:20;;;;;;;38.25;23.55;;;;;;;;;;5112688;28;20030;-71
2021/09/05 01:49:46;;;;;;;41.65;23.33;;;;;;;;;;5112610;28;20035;-71
2021/09/05 01:52:12;;;;;;;39.13;24.02;;;;;;;;;;5112354;28;20050;-72
2021/09/05 01:54:38;;;;;;;41.92;26.00;;;;;;;;;;5111205;28;20028;-72
2021/09/05 01:57:04;;;;;;;46.33;25.50;;;;;;;;;;5112510;28;20125;-71
2021/09/05 01:59:30;;;;;;;50.80;28.75;;;;;;;;;;5112015;28;20027;-71
2021/09/05 02:01:56;;;;;;;47.38;28.25;;;;;;;;;;5112567;28;20106;-71
2021/09/05 02:04:22;;;;;;;46.90;27.83;;;;;;;;;;5110969;28;20028;-71
2021/09/05 02:06:49;;;;;;;46.65;28.02;;;;;;;;;;5112504;28;20084;-71
2021/09/05 02:09:15;;;;;;;48.95;27.60;;;;;;;;;;5112216;28;20106;-71
2021/09/05 02:11:41;;;;;;;46.55;28.70;;;;;;;;;;5112629;28;20073;-71
2021/09/05 02:14:07;;;;;;;48.65;29.40;;;;;;;;;;5111418;28;20055;-71
2021/09/05 02:16:33;;;;;;;50.88;27.70;;;;;;;;;;5111756;28;20041;-71
2021/09/05 02:19:02;;;;;;;44.63;27.65;;;;;;;;;;5112523;28;20020;-71
2021/09/05 02:21:28;;;;;;;56.35;29.70;;;;;;;;;;5111534;28;20039;-71
2021/09/05 02:23:54;;;;;;;49.72;28.00;;;;;;;;;;5111962;28;20100;-71
2021/09/05 02:26:20;;;;;;;48.13;29.08;;;;;;;;;;5087722;28;20144;-71
2021/09/05 02:28:46;;;;;;;55.95;28.55;;;;;;;;;;5112637;28;20034;-71
2021/09/05 02:31:12;;;;;;;52.92;30.08;;;;;;;;;;5093285;28;20024;-71
2021/09/05 02:33:39;;;;;;;48.47;28.40;;;;;;;;;;5092981;28;20036;-71
2021/09/05 02:36:05;;;;;;;47.15;26.10;;;;;;;;;;5092334;28;20050;-71
2021/09/05 02:38:31;;;;;;;46.40;28.33;;;;;;;;;;5111498;28;20490;-71
2021/09/05 02:40:57;;;;;;;50.45;27.58;;;;;;;;;;5112163;28;20019;-71
2021/09/05 02:43:23;;;;;;;53.55;28.48;;;;;;;;;;5111721;28;20023;-71
2021/09/05 02:45:50;;;;;;;54.67;28.45;;;;;;;;;;5102664;28;20106;-72
2021/09/05 02:48:16;;;;;;;51.97;28.27;;;;;;;;;;5092691;28;20035;-71
2021/09/05 02:50:42;;;;;;;50.03;27.70;;;;;;;;;;5111168;28;20420;-71
2021/09/05 02:53:08;;;;;;;56.28;28.90;;;;;;;;;;5112040;28;20500;-71
2021/09/05 02:55:34;;;;;;;47.40;27.88;;;;;;;;;;5091540;28;20028;-71
2021/09/05 02:58:00;;;;;;;43.53;26.27;;;;;;;;;;5111711;28;20019;-71
2021/09/05 03:00:26;;;;;;;47.97;28.33;;;;;;;;;;5111135;28;20520;-71
2021/09/05 03:02:52;;;;;;;46.72;28.65;;;;;;;;;;5111886;28;20022;-71
2021/09/05 03:05:18;;;;;;;51.67;28.27;;;;;;;;;;5109186;28;20525;-71
2021/09/05 03:07:44;;;;;;;48.83;27.13;;;;;;;;;;5111324;28;20042;-71
2021/09/05 03:10:11;;;;;;;47.38;26.58;;;;;;;;;;5111072;28;20031;-71
2021/09/05 03:12:37;;;;;;;48.08;28.08;;;;;;;;;;5111848;28;20507;-71
2021/09/05 03:15:03;;;;;;;42.28;24.50;;;;;;;;;;5090429;28;20078;-71
2021/09/05 03:17:30;;;;;;;47.95;26.63;;;;;;;;;;5111289;28;20024;-71
2021/09/05 03:19:56;;;;;;;49.42;27.27;;;;;;;;;;5110902;28;20099;-71
2021/09/05 03:22:22;;;;;;;43.67;24.70;;;;;;;;;;5110916;28;20046;-71
2021/09/05 03:24:48;;;;;;;46.70;27.00;;;;;;;;;;5109708;28;20493;-71
2021/09/05 03:27:14;;;;;;;44.72;26.88;;;;;;;;;;5111192;28;20027;-71
2021/09/05 03:29:40;;;;;;;42.60;24.35;;;;;;;;;;5092936;28;20028;-71
2021/09/05 03:32:07;;;;;;;42.97;24.08;;;;;;;;;;5111451;28;20507;-71
2021/09/05 03:34:33;;;;;;;41.58;24.75;;;;;;;;;;5109954;28;20031;-71
2021/09/05 03:36:59;;;;;;;42.35;25.35;;;;;;;;;;5111339;28;20095;-71
2021/09/05 03:39:25;;;;;;;50.70;26.73;;;;;;;;;;5092443;28;20528;-71
2021/09/05 03:41:51;;;;;;;50.50;26.70;;;;;;;;;;5110874;28;20027;-71
2021/09/05 03:44:17;;;;;;;45.63;26.13;;;;;;;;;;5109996;28;20034;-71
2021/09/05 03:46:43;;;;;;;48.90;26.08;;;;;;;;;;5109530;28;20048;-71
2021/09/05 03:49:09;;;;;;;46.13;25.75;;;;;;;;;;5105651;28;20057;-71
2021/09/05 03:51:35;;;;;;;47.05;24.48;;;;;;;;;;5111022;28;20052;-71
2021/09/05 03:54:01;;;;;;;51.25;25.70;;;;;;;;;;5109824;28;20028;-70
2021/09/05 03:56:27;;;;;;;43.88;25.13;;;;;;;;;;5110643;28;20024;-71
2021/09/05 03:58:53;;;;;;;51.50;26.65;;;;;;;;;;5110812;28;20027;-71
2021/09/05 04:01:19;;;;;;;49.38;25.48;;;;;;;;;;5110638;28;20032;-71
2021/09/05 04:03:45;;;;;;;45.42;25.75;;;;;;;;;;5092122;28;20024;-70
2021/09/05 04:06:13;;;;;;;54.38;27.38;;;;;;;;;;5109407;28;20032;-71
2021/09/05 04:08:42;;;;;;;46.13;26.60;;;;;;;;;;5110066;28;20094;-72
2021/09/05 04:11:08;;;;;;;52.83;27.67;;;;;;;;;;5110627;28;20035;-71
2021/09/05 04:13:35;;;;;;;48.67;27.55;;;;;;;;;;5110273;28;20069;-71
2021/09/05 04:16:01;;;;;;;48.13;25.85;;;;;;;;;;5109289;28;20574;-71
2021/09/05 04:18:27;;;;;;;51.47;27.25;;;;;;;;;;5114526;28;20023;-71
2021/09/05 04:20:53;;;;;;;47.55;26.02;;;;;;;;;;5094702;28;20034;-71
2021/09/05 04:23:19;;;;;;;46.03;25.88;;;;;;;;;;5109264;28;20012;-71
2021/09/05 04:25:45;;;;;;;47.65;26.90;;;;;;;;;;5094040;28;20039;-71
2021/09/05 04:28:11;;;;;;;47.90;26.65;;;;;;;;;;5114562;28;20023;-71
2021/09/05 04:30:37;;;;;;;48.53;26.63;;;;;;;;;;5114220;28;20034;-71
2021/09/05 04:33:05;;;;;;;43.40;23.58;;;;;;;;;;5114431;28;20023;-71
2021/09/05 04:35:31;;;;;;;51.65;28.25;;;;;;;;;;5112598;28;20016;-71
2021/09/05 04:37:57;;;;;;;44.17;25.45;;;;;;;;;;5095887;28;20107;-71
2021/09/05 04:40:23;;;;;;;44.35;24.90;;;;;;;;;;5112324;28;20477;-71
2021/09/05 04:42:49;;;;;;;47.40;27.70;;;;;;;;;;5113540;28;20438;-71
2021/09/05 04:45:15;;;;;;;57.50;26.35;;;;;;;;;;5093543;28;20039;-71
2021/09/05 04:47:42;;;;;;;55.45;28.10;;;;;;;;;;5113344;28;20019;-71
2021/09/05 04:50:08;;;;;;;47.28;26.38;;;;;;;;;;5112455;28;20024;-71
2021/09/05 04:52:34;;;;;;;51.90;27.42;;;;;;;;;;5113866;28;20051;-70
2021/09/05 04:55:00;;;;;;;47.17;25.88;;;;;;;;;;5093540;28;20027;-71
2021/09/05 04:57:26;;;;;;;52.70;29.10;;;;;;;;;;5091568;28;20096;-71
2021/09/05 04:59:52;;;;;;;50.72;27.10;;;;;;;;;;5113937;28;20044;-70
2021/09/05 05:02:18;;;;;;;47.53;27.92;;;;;;;;;;5096119;28;20020;-71
2021/09/05 05:04:44;;;;;;;45.85;26.17;;;;;;;;;;5111615;28;20027;-71
2021/09/05 05:07:11;;;;;;;47.83;28.35;;;;;;;;;;5113698;28;20036;-71
2021/09/05 05:09:43;;;;;;;49.85;26.60;;;;;;;;;;5111866;28;20027;-71
2021/09/05 05:12:09;;;;;;;47.08;25.67;;;;;;;;;;5113881;28;20047;-71
2021/09/05 05:14:35;;;;;;;48.00;25.67;;;;;;;;;;5112122;28;20008;-70
2021/09/05 05:17:01;;;;;;;51.10;27.25;;;;;;;;;;5113706;28;20153;-71
2021/09/05 05:19:27;;;;;;;47.10;25.75;;;;;;;;;;5093314;28;20027;-71
2021/09/05 05:21:54;;;;;;;46.47;23.27;;;;;;;;;;5113091;28;20016;-71
2021/09/05 05:24:20;;;;;;;41.70;24.13;;;;;;;;;;5111924;28;20102;-71
2021/09/05 05:26:46;;;;;;;46.30;23.60;;;;;;;;;;5112637;28;20020;-71
2021/09/05 05:29:12;;;;;;;45.38;24.23;;;;;;;;;;5087136;28;20058;-71
2021/09/05 05:31:38;;;;;;;48.40;26.27;;;;;;;;;;5111556;28;20081;-71
2021/09/05 05:34:04;;;;;;;48.38;25.48;;;;;;;;;;5112076;28;20105;-71
2021/09/05 05:36:30;;;;;;;47.83;25.95;;;;;;;;;;5112305;28;20489;-71
2021/09/05 05:38:56;;;;;;;50.65;24.77;;;;;;;;;;5094924;28;20081;-71
2021/09/05 05:41:22;;;;;;;47.88;24.92;;;;;;;;;;5111187;28;20035;-71
2021/09/05 05:43:48;;;;;;;44.42;24.55;;;;;;;;;;5093419;28;20024;-71
2021/09/05 05:46:14;;;;;;;50.90;25.13;;;;;;;;;;5110948;28;20039;-71
2021/09/05 05:48:40;;;;;;;45.67;25.08;;;;;;;;;;5112621;28;20015;-71
2021/09/05 05:51:06;;;;;;;52.15;25.55;;;;;;;;;;5112601;28;20088;-71
2021/09/05 05:53:32;;;;;;;45.53;24.65;;;;;;;;;;5094045;28;20024;-71
2021/09/05 05:55:58;;;;;;;44.22;23.88;;;;;;;;;;5111250;28;20031;-71
2021/09/05 05:58:24;;;;;;;43.50;23.88;;;;;;;;;;5112127;28;20039;-71
2021/09/05 06:00:50;;;;;;;51.88;24.63;;;;;;;;;;5094371;28;20574;-71
2021/09/05 06:03:16;;;;;;;49.80;25.42;;;;;;;;;;5113012;28;20051;-70
2021/09/05 06:05:42;;;;;;;45.75;25.00;;;;;;;;;;5110649;28;20378;-70
2021/09/05 06:08:08;;;;;;;42.55;23.10;;;;;;;;;;5112731;28;20035;-71
2021/09/05 06:10:34;;;;;;;45.63;25.38;;;;;;;;;;5094189;28;20023;-71
2021/09/05 06:13:00;;;;;;;43.92;24.05;;;;;;;;;;5111722;28;20023;-71
2021/09/05 06:15:27;;;;;;;42.28;24.08;;;;;;;;;;5110979;28;20072;-72
2021/09/05 06:17:53;;;;;;;46.35;26.30;;;;;;;;;;5112306;28;20497;-72
2021/09/05 06:20:19;;;;;;;44.90;23.45;;;;;;;;;;5112285;28;20497;-71
2021/09/05 06:22:45;;;;;;;44.15;22.90;;;;;;;;;;5112240;28;20024;-70
2021/09/05 06:25:11;;;;;;;42.53;23.25;;;;;;;;;;5110708;28;20034;-71
2021/09/05 06:27:37;;;;;;;45.10;23.52;;;;;;;;;;5094462;28;20058;-71
2021/09/05 06:30:03;;;;;;;43.35;23.13;;;;;;;;;;5094529;28;20023;-71
2021/09/05 06:32:29;;;;;;;42.50;22.98;;;;;;;;;;5111818;28;20028;-71
2021/09/05 06:34:56;;;;;;;39.08;21.52;;;;;;;;;;5110798;28;20027;-71
2021/09/05 06:37:22;;;;;;;39.63;22.52;;;;;;;;;;5111665;28;20024;-71
2021/09/05 06:39:48;;;;;;;44.75;22.45;;;;;;;;;;5110894;28;20100;-71
2021/09/05 06:42:15;;;;;;;37.67;22.35;;;;;;;;;;5111359;28;20030;-71
2021/09/05 06:44:41;;;;;;;38.85;21.55;;;;;;;;;;5105356;28;20020;-70
2021/09/05 06:47:07;;;;;;;40.67;23.00;;;;;;;;;;5108154;28;20098;-71
2021/09/05 06:49:33;;;;;;;42.42;22.02;;;;;;;;;;5111438;28;20038;-71
2021/09/05 06:51:59;;;;;;;45.13;24.50;;;;;;;;;;5111724;28;20185;-70
2021/09/05 06:54:25;;;;;;;42.28;23.30;;;;;;;;;;5109493;28;20389;-71
2021/09/05 06:56:51;;;;;;;34.95;21.27;;;;;;;;;;5111939;28;20447;-70
2021/09/05 06:59:18;;;;;;;39.45;21.67;;;;;;;;;;5109958;28;20474;-70
2021/09/05 07:01:44;;;;;;;38.58;22.38;;;;;;;;;;5110721;28;20019;-70
2021/09/05 07:04:11;;;;;;;43.65;23.30;;;;;;;;;;5110405;28;20030;-70
2021/09/05 07:06:38;;;;;;;39.35;22.20;;;;;;;;;;5092832;28;20032;-70
2021/09/05 07:09:04;;;;;;;44.35;23.63;;;;;;;;;;5111169;28;20030;-70
2021/09/05 07:11:30;;;;;;;43.58;22.13;;;;;;;;;;5092668;28;20066;-71
2021/09/05 07:13:56;;;;;;;46.35;24.50;;;;;;;;;;5110774;28;20089;-70
2021/09/05 07:16:22;;;;;;;38.60;22.75;;;;;;;;;;5109830;28;20023;-70
2021/09/05 07:18:48;;;;;;;41.90;23.80;;;;;;;;;;5110946;28;20027;-70
2021/09/05 07:21:14;;;;;;;41.30;23.65;;;;;;;;;;5107500;28;20557;-70
2021/09/05 07:23:40;;;;;;;37.80;23.58;;;;;;;;;;5110458;28;20050;-70
2021/09/05 07:26:06;;;;;;;47.38;23.63;;;;;;;;;;5107355;28;20035;-70
2021/09/05 07:28:35;;;;;;;41.78;22.90;;;;;;;;;;5099109;28;20024;-70
2021/09/05 07:31:01;;;;;;;39.00;20.88;;;;;;;;;;5091272;28;20023;-70
2021/09/05 07:33:27;;;;;;;39.00;22.88;;;;;;;;;;5109837;28;20020;-70
2021/09/05 07:35:54;;;;;;;45.83;24.23;;;;;;;;;;5109094;28;20516;-70
2021/09/05 07:38:20;;;;;;;43.70;22.58;;;;;;;;;;5106801;28;20043;-70
2021/09/05 07:40:46;;;;;;;40.60;23.42;;;;;;;;;;5109288;28;20047;-70
2021/09/05 07:43:12;;;;;;;42.92;23.42;;;;;;;;;;5109738;28;20049;-70
2021/09/05 07:45:38;;;;;;;42.40;22.38;;;;;;;;;;5107858;28;20032;-69
2021/09/05 07:48:04;;;;;;;44.05;24.98;;;;;;;;;;5106507;28;20023;-70
2021/09/05 07:50:30;;;;;;;41.08;23.77;;;;;;;;;;5106243;28;20016;-70
2021/09/05 07:52:56;;;;;;;41.42;24.13;;;;;;;;;;5108973;28;20024;-69
2021/09/05 07:55:22;;;;;;;42.20;23.10;;;;;;;;;;5091864;28;20073;-70
2021/09/05 07:57:48;;;;;;;44.28;24.00;;;;;;;;;;5111633;28;20024;-69
2021/09/05 08:00:15;;;;;;;41.10;23.88;;;;;;;;;;5093633;28;20034;-70
2021/09/05 08:02:41;;;;;;;48.13;25.63;;;;;;;;;;5112894;28;20466;-70
2021/09/05 08:05:10;;;;;;;47.70;23.38;;;;;;;;;;5110882;28;20016;-70
2021/09/05 08:07:37;;;;;;;41.55;24.40;;;;;;;;;;5114446;28;20027;-70
2021/09/05 08:10:03;;;;;;;44.00;25.95;;;;;;;;;;5111448;28;20042;-70
2021/09/05 08:12:30;;;;;;;42.10;23.58;;;;;;;;;;5112995;28;20096;-70
2021/09/05 08:14:56;;;;;;;40.10;22.25;;;;;;;;;;5105636;28;20041;-69
2021/09/05 08:17:22;;;;;;;44.50;24.95;;;;;;;;;;5110434;28;20028;-69
2021/09/05 08:19:50;;;;;;;42.65;24.20;;;;;;;;;;5111462;28;20096;-70
2021/09/05 08:22:16;;;;;;;39.90;24.75;;;;;;;;;;5109175;28;20023;-70
2021/09/05 08:24:42;;;;;;;44.92;24.83;;;;;;;;;;5108104;28;20051;-70
2021/09/05 08:27:08;;;;;;;41.50;23.92;;;;;;;;;;5114922;27;20015;-70
2021/09/05 08:29:35;;;;;;;49.15;25.35;;;;;;;;;;5108899;28;20081;-70
2021/09/05 08:32:01;;;;;;;39.60;23.20;;;;;;;;;;5111990;28;20020;-70
2021/09/05 08:34:28;;;;;;;44.88;23.98;;;;;;;;;;5111348;28;20019;-70
2021/09/05 08:36:54;;;;;;;45.72;25.02;;;;;;;;;;5112066;28;20024;-70
2021/09/05 08:39:21;;;;;;;43.22;23.60;;;;;;;;;;5112171;28;20378;-70
2021/09/05 08:41:47;;;;;;;36.55;21.98;;;;;;;;;;5111462;28;20050;-70
2021/09/05 08:44:13;;;;;;;40.80;24.27;;;;;;;;;;5089976;28;20027;-70
2021/09/05 08:46:39;;;;;;;39.15;25.05;;;;;;;;;;5111648;28;20019;-70
2021/09/05 08:49:05;;;;;;;41.70;22.73;;;;;;;;;;5113702;28;20055;-70
2021/09/05 08:51:31;;;;;;;41.58;23.55;;;;;;;;;;5112460;28;20046;-70
2021/09/05 08:53:58;;;;;;;36.20;22.33;;;;;;;;;;5107199;28;20020;-70
2021/09/05 08:56:24;;;;;;;37.00;21.20;;;;;;;;;;5111432;28;20039;-70
2021/09/05 08:58:50;;;;;;;37.30;22.40;;;;;;;;;;5090711;28;20035;-70
2021/09/05 09:01:21;;;;;;;41.95;22.77;;;;;;;;;;5112221;28;20032;-71
2021/09/05 09:03:47;;;;;;;39.55;21.48;;;;;;;;;;5109625;28;20019;-69
2021/09/05 09:06:20;;;;;;;36.97;21.70;;;;;;;;;;5093555;28;20016;-70
2021/09/05 09:08:56;;;;;;;35.17;20.45;;;;;;;;;;5112329;28;20041;-69
2021/09/05 09:11:22;;;;;;;34.67;20.25;;;;;;;;;;5092014;28;20032;-69
2021/09/05 09:13:53;;;;;;;36.25;22.23;;;;;;;;;;5109751;28;20032;-70
2021/09/05 09:16:19;;;;;;;36.20;22.00;;;;;;;;;;5090765;28;20103;-70
2021/09/05 09:18:45;;;;;;;40.17;20.55;;;;;;;;;;5092876;28;20039;-70
2021/09/05 09:21:12;;;;;;;40.72;23.65;;;;;;;;;;5105636;28;20024;-71
2021/09/05 09:23:39;;;;;;;34.40;21.08;;;;;;;;;;5112027;28;20027;-70
2021/09/05 09:26:09;;;;;;;34.20;21.58;;;;;;;;;;5107291;28;20401;-70
2021/09/05 09:28:35;;;;;;;42.50;20.98;;;;;;;;;;5111755;28;20032;-70
2021/09/05 09:31:05;;;;;;;31.33;20.77;;;;;;;;;;5085733;28;20445;-71
2021/09/05 09:33:31;;;;;;;33.33;21.60;;;;;;;;;;5109676;28;20148;-69
2021/09/05 09:35:59;;;;;;;35.75;21.45;;;;;;;;;;5107836;28;20024;-69
2021/09/05 09:38:25;;;;;;;39.20;21.25;;;;;;;;;;5110332;28;20032;-70
2021/09/05 09:41:04;;;;;;;35.33;20.25;;;;;;;;;;5081897;28;20076;-70
2021/09/05 09:43:30;;;;;;;38.40;20.73;;;;;;;;;;5096955;28;20389;-69
2021/09/05 09:46:11;;;;;;;37.00;21.48;;;;;;;;;;5108290;28;20574;-70
2021/09/05 09:48:42;;;;;;;35.17;20.40;;;;;;;;;;5110886;28;20023;-71
2021/09/05 09:51:09;;;;;;;33.03;19.92;;;;;;;;;;5105876;28;20802;-70
2021/09/05 09:53:35;;;;;;;35.50;20.73;;;;;;;;;;5109947;28;20062;-69
2021/09/05 09:56:02;;;;;;;32.97;19.60;;;;;;;;;;5105473;28;20034;-71
2021/09/05 09:58:28;;;;;;;36.90;21.13;;;;;;;;;;5093290;28;20043;-69
2021/09/05 10:00:54;;;;;;;36.90;22.52;;;;;;;;;;5092576;28;20020;-71
2021/09/05 10:03:21;;;;;;;29.70;19.10;;;;;;;;;;5109092;28;20028;-69
2021/09/05 10:05:47;;;;;;;32.13;19.75;;;;;;;;;;5108038;28;20386;-69
2021/09/05 10:08:14;;;;;;;37.10;20.40;;;;;;;;;;5110151;28;20107;-70
2021/09/05 10:10:40;;;;;;;37.50;19.88;;;;;;;;;;5110213;28;20046;-69
2021/09/05 10:13:07;;;;;;;41.08;19.80;;;;;;;;;;5109779;28;20028;-70
2021/09/05 10:15:34;;;;;;;37.22;20.40;;;;;;;;;;5107117;28;20568;-70
2021/09/05 10:18:00;;;;;;;36.88;19.75;;;;;;;;;;5111620;28;20489;-70
2021/09/05 10:20:27;;;;;;;25.13;17.05;;;;;;;;;;5089644;28;20040;-70
2021/09/05 10:22:53;;;;;;;38.00;21.05;;;;;;;;;;5104357;28;20023;-70
2021/09/05 10:25:19;;;;;;;31.23;18.80;;;;;;;;;;5083504;28;20031;-71
2021/09/05 10:27:49;;;;;;;33.15;19.92;;;;;;;;;;5110959;28;20027;-71
2021/09/05 10:30:17;;;;;;;38.72;19.75;;;;;;;;;;5086493;28;20104;-71
2021/09/05 10:32:56;;;;;;;34.80;19.02;;;;;;;;;;5103511;28;20039;-70
2021/09/05 10:35:41;;;;;;;32.70;18.90;;;;;;;;;;5094965;28;20035;-71
2021/09/05 10:38:19;;;;;;;33.00;18.40;;;;;;;;;;5083295;28;20035;-71
2021/09/05 10:40:52;;;;;;;34.40;19.50;;;;;;;;;;5110002;28;20051;-71
2021/09/05 10:43:19;;;;;;;33.38;18.40;;;;;;;;;;5110662;28;20028;-70
2021/09/05 10:45:49;;;;;;;27.15;16.98;;;;;;;;;;5105235;28;20508;-71
2021/09/05 10:48:35;;;;;;;31.75;18.20;;;;;;;;;;5092104;28;20043;-70
2021/09/05 10:51:21;;;;;;;30.63;18.25;;;;;;;;;;5092954;28;20116;-71
2021/09/05 10:53:55;;;;;;;31.40;17.95;;;;;;;;;;5091861;28;20039;-70
2021/09/05 10:56:21;;;;;;;31.25;18.80;;;;;;;;;;5102080;28;20043;-70
2021/09/05 10:58:49;;;;;;;32.15;17.13;;;;;;;;;;5089675;28;20489;-70
2021/09/05 11:01:19;;;;;;;31.08;17.40;;;;;;;;;;5110812;28;20032;-70
2021/09/05 11:04:04;;;;;;;26.75;17.25;;;;;;;;;;5110035;28;20489;-70
2021/09/05 11:06:33;;;;;;;29.40;17.00;;;;;;;;;;5101921;28;20038;-70
2021/09/05 11:09:18;;;;;;;29.45;16.85;;;;;;;;;;5104946;28;20032;-70
2021/09/05 11:11:55;;;;;;;27.23;16.15;;;;;;;;;;5080415;28;20035;-70
2021/09/05 11:14:45;;;;;;;27.02;16.52;;;;;;;;;;5072516;28;20048;-70
2021/09/05 11:17:13;;;;;;;26.58;15.77;;;;;;;;;;5079954;28;20529;-70
2021/09/05 11:19:45;;;;;;;26.65;16.67;;;;;;;;;;5105693;28;20039;-70
2021/09/05 11:22:18;;;;;;;31.05;17.80;;;;;;;;;;5091541;28;20031;-70
2021/09/05 11:24:45;;;;;;;25.35;16.63;;;;;;;;;;5096729;28;20007;-71
2021/09/05 11:27:12;;;;;;;23.40;15.15;;;;;;;;;;5104942;28;20066;-71
2021/09/05 11:29:38;;;;;;;25.40;14.73;;;;;;;;;;5108385;28;20100;-69
2021/09/05 11:32:06;;;;;;;25.23;14.45;;;;;;;;;;5099427;28;20415;-71
2021/09/05 11:34:32;;;;;;;27.92;16.88;;;;;;;;;;5102496;28;20099;-70
2021/09/05 11:36:59;;;;;;;28.48;15.38;;;;;;;;;;5096367;28;20030;-70
2021/09/05 11:39:25;;;;;;;24.83;15.70;;;;;;;;;;5094320;28;20020;-71
2021/09/05 11:41:55;;;;;;;27.00;15.98;;;;;;;;;;5106987;28;20433;-69
2021/09/05 11:44:48;;;;;;;24.00;16.52;;;;;;;;;;5100155;28;20016;-69
2021/09/05 11:47:16;;;;;;;25.88;15.18;;;;;;;;;;5096813;28;20032;-70
2021/09/05 11:49:49;;;;;;;28.52;16.23;;;;;;;;;;5099120;28;20076;-70
2021/09/05 11:52:19;;;;;;;23.73;15.68;;;;;;;;;;5094344;28;20067;-69
2021/09/05 11:54:48;;;;;;;26.25;15.27;;;;;;;;;;5097341;28;20058;-71
2021/09/05 11:57:15;;;;;;;27.83;16.23;;;;;;;;;;5103611;28;20451;-70
2021/09/05 11:59:41;;;;;;;24.92;15.82;;;;;;;;;;5107637;28;20027;-70
2021/09/05 12:02:07;;;;;;;25.65;15.77;;;;;;;;;;5100591;28;20469;-69
2021/09/05 12:04:35;;;;;;;26.20;15.95;;;;;;;;;;5097977;28;20012;-73
2021/09/05 12:07:01;;;;;;;25.27;14.77;;;;;;;;;;5093642;28;20396;-70
2021/09/05 12:09:29;;;;;;;27.38;14.40;;;;;;;;;;5099629;28;20019;-70
2021/09/05 12:11:58;;;;;;;23.50;13.57;;;;;;;;;;5082596;28;20032;-69
2021/09/05 12:14:37;;;;;;;27.83;14.68;;;;;;;;;;5098631;28;20039;-70
2021/09/05 12:17:15;;;;;;;24.25;15.95;;;;;;;;;;5093814;28;20023;-69
2021/09/05 12:19:58;;;;;;;22.63;13.80;;;;;;;;;;5098540;28;20073;-70
2021/09/05 12:22:25;;;;;;;21.65;13.45;;;;;;;;;;5095010;28;20031;-71
2021/09/05 12:24:54;;;;;;;23.45;15.80;;;;;;;;;;5098754;28;20023;-70
2021/09/05 12:27:20;;;;;;;27.20;16.48;;;;;;;;;;5098699;28;20020;-70
2021/09/05 12:29:46;;;;;;;25.27;15.60;;;;;;;;;;5100542;28;20084;-70
2021/09/05 12:32:14;;;;;;;27.23;14.52;;;;;;;;;;5079890;28;20508;-70
2021/09/05 12:34:47;;;;;;;21.88;14.75;;;;;;;;;;5091007;28;20016;-69
2021/09/05 12:37:17;;;;;;;22.42;14.48;;;;;;;;;;5093918;28;20040;-70
2021/09/05 12:39:44;;;;;;;24.73;15.38;;;;;;;;;;5100947;28;20515;-69
2021/09/05 12:42:10;;;;;;;23.92;13.70;;;;;;;;;;5096885;28;20440;-70
2021/09/05 12:44:41;;;;;;;23.48;14.70;;;;;;;;;;5105445;28;20472;-72
2021/09/05 12:47:07;;;;;;;25.15;14.27;;;;;;;;;;5104887;28;20020;-70
2021/09/05 12:49:39;;;;;;;22.27;13.60;;;;;;;;;;5104910;28;20032;-70
2021/09/05 12:52:05;;;;;;;23.42;14.43;;;;;;;;;;5105675;28;20069;-71
2021/09/05 12:54:38;;;;;;;25.38;14.45;;;;;;;;;;5093098;28;20100;-70
2021/09/05 12:57:05;;;;;;;26.90;15.13;;;;;;;;;;5100037;28;20023;-70
2021/09/05 12:59:31;;;;;;;21.75;15.15;;;;;;;;;;5094171;28;20096;-72
2021/09/05 13:01:57;;;;;;;21.75;13.57;;;;;;;;;;5095623;28;20095;-70
2021/09/05 13:04:23;;;;;;;24.23;14.50;;;;;;;;;;5100841;28;20512;-71
2021/09/05 13:06:49;;;;;;;25.67;14.52;;;;;;;;;;5105686;28;20055;-71
2021/09/05 13:09:15;;;;;;;26.77;14.00;;;;;;;;;;5101667;28;20036;-72
2021/09/05 13:11:43;;;;;;;23.42;14.55;;;;;;;;;;5080172;28;20031;-71
2021/09/05 13:14:09;;;;;;;22.42;14.00;;;;;;;;;;5078332;28;20457;-72
2021/09/05 13:16:35;;;;;;;20.67;13.23;;;;;;;;;;5086264;28;20020;-72
2021/09/05 13:19:02;;;;;;;25.17;14.60;;;;;;;;;;5106751;28;20028;-72
2021/09/05 13:21:28;;;;;;;23.45;14.43;;;;;;;;;;5107855;27;20032;-71
2021/09/05 13:23:54;;;;;;;24.83;14.52;;;;;;;;;;5095554;28;20024;-71
2021/09/05 13:26:21;;;;;;;23.92;14.93;;;;;;;;;;5105180;27;20019;-72
2021/09/05 13:28:48;;;;;;;21.75;14.30;;;;;;;;;;5106511;28;20113;-71
2021/09/05 13:31:15;;;;;;;22.88;15.93;;;;;;;;;;5109854;28;20728;-71
2021/09/05 13:33:41;;;;;;;24.95;15.27;;;;;;;;;;5087932;28;20773;-71
2021/09/05 13:36:07;;;;;;;22.05;15.45;;;;;;;;;;5100598;28;20024;-70
2021/09/05 13:38:33;;;;;;;22.23;15.65;;;;;;;;;;5085237;28;20040;-70
2021/09/05 13:41:00;;;;;;;25.80;17.25;;;;;;;;;;5085010;28;20028;-70
2021/09/05 13:43:26;;;;;;;22.42;15.52;;;;;;;;;;5103315;28;20481;-71
2021/09/05 13:45:52;;;;;;;27.60;17.70;;;;;;;;;;5084338;28;20558;-70
2021/09/05 13:48:18;;;;;;;22.48;15.43;;;;;;;;;;5084867;28;20126;-71
2021/09/05 13:50:44;;;;;;;22.52;15.85;;;;;;;;;;5104514;28;20170;-70
2021/09/05 13:53:10;;;;;;;23.52;16.23;;;;;;;;;;5103154;28;20028;-69
2021/09/05 13:55:36;;;;;;;26.17;16.23;;;;;;;;;;5103136;28;20706;-70
2021/09/05 13:58:02;;;;;;;24.08;16.92;;;;;;;;;;5084881;28;20459;-70
2021/09/05 14:00:28;;;;;;;24.30;17.90;;;;;;;;;;5102543;28;20072;-70
2021/09/05 14:02:54;;;;;;;23.33;17.23;;;;;;;;;;5102814;28;20016;-71
2021/09/05 14:05:21;;;;;;;23.42;17.60;;;;;;;;;;5105421;28;20027;-70
2021/09/05 14:07:47;;;;;;;23.77;18.02;;;;;;;;;;5105913;28;20089;-70
2021/09/05 14:10:13;;;;;;;24.92;18.40;;;;;;;;;;5087945;28;20034;-72
2021/09/05 14:12:39;;;;;;;23.50;15.80;;;;;;;;;;5105044;28;20034;-73
2021/09/05 14:15:06;;;;;;;23.45;15.25;;;;;;;;;;5102117;28;20168;-69